Airfield :
LOGIN :

Register | Disclaimer

   EN    FR    IT 

 










Legend :    VFR   Marginal VFR   IFR   Intensive IFR   Very Intensive IFR
Visi :
Ceiling :
>= 8 km
>= 3000ft
5 to 8 km
1000 to 3000 ft
1500m to 5 km
500 to 1000 ft
800 to 1500m
200 to 500 ft
< 800m
< 200 ft
Symbols :   Thunderstorms  Fog  Heavy snow  Heavy precipitations  Wind > 20 kt
SIGMETs :     Misc.  Thunderstorms  Icing  Turbulence  Mountain Waves  Volcanic Ashes






- Airport Elevation : 436 ft
- IATA code : ANG


LFBU - Angoulême Brie Champniers

CURRENT METAR :
  • 270600Z AUTO 25005KT 9999 OVC046 07/05 Q1014 NOSIG

EXPIRED METARs :
  • 270530Z AUTO 24005KT CAVOK 07/05 Q1014 NOSIG
  • 270500Z AUTO 25005KT 9999 BKN044 OVC054 07/05 Q1014
  • 270430Z AUTO 26004KT 9999 BKN041 OVC050 07/04 Q1014
  • 270400Z AUTO 27004KT 230V290 9999 OVC045 06/04 Q1014
  • 270330Z AUTO 28005KT 9999 OVC042 06/04 Q1014
  • 270300Z AUTO 25005KT 9999 BKN042 06/04 Q1014

TAF TAF LFBU
Valid from the 27 at 06:00 until the 28 at 06:00 UTC


270500Z 2706/2806 27005KT 9999 BKN040
BECMG 2708/2710 31015KT
BECMG 2717/2719 28005KT
TEMPO 2717/2806 -RA
TEMPO 2803/2806 OVC015



MET'MAP, your aeronautical weather chart ! - Copyright ORBIFLY December 2007 - Disclaimer

ORBIFLY MET'MAP TEAM :

Programming & Development : Alexandra Zaïnal
Concept & original design : Baudouin d'Aumeries
Assistance for programming : Marc-Olivier Méhu
Technical & hardware support : Manuel Goepfert

Contact : metmap@orbifly.com




SOURCES & CREDITS :

   NOAA